Amarant — SPG3207 — position and weather

sailwx.info

Track history (hours):
 
Tides and Currents Weather Stations Pressure Air Temp Water Temp Dewpoint Dewpoint Depression Visibility Wind Speed Wind Dir Waves Ship Positions

Amarant

Last reported at 2017-Jun-23 13:31 UTC. Time now 2017-Jun-23 14:01 UTC.
Position N 37°35' E 023°31'.

Length 14 m.

Type: Sailing vessel. MMSI: 261015190.

Date/timePositionNaut miles runAvg speedWind from/ knotsBaromVisibWave heightAir tempDewpointWater temp
2017-Jun-23 13:31N 37°35' E 023°31'16 2.8
2017-Jun-23 07:59N 37°51' E 023°27'2 4.3
2017-Jun-23 07:30N 37°52' E 023°29'1 0.1
2017-Jun-22 14:53N 37°53' E 023°29'1 3.0
2017-Jun-22 14:30N 37°53' E 023°30'6 5.7
2017-Jun-22 13:30N 37°55' E 023°37'  
2017-Jun-16 19:48N 37°56' E 023°39'0 0.1
2017-Jun-16 19:30N 37°56' E 023°39'3 5.0
2017-Jun-16 19:00N 37°54' E 023°40'3 6.3
2017-Jun-16 18:30N 37°51' E 023°42'3 6.3
2017-Jun-16 18:00N 37°48' E 023°45'  
Track history (hours):
 
Tides and Currents Weather Stations Pressure Air Temp Water Temp Dewpoint Dewpoint Depression Visibility Wind Speed Wind Dir Waves Ship Positions

Amarant

Last reported at 2017-Jun-23 13:31 UTC. Time now 2017-Jun-23 14:01 UTC.
Position N 37°35' E 023°31'.

Length 14 m.

Type: Sailing vessel. MMSI: 261015190.

Date/timePositionNaut miles runAvg speedWind from/ knotsBaromVisibWave heightAir tempDewpointWater temp
2017-Jun-23 13:31N 37°35' E 023°31'16 2.8
2017-Jun-23 07:59N 37°51' E 023°27'2 4.3
2017-Jun-23 07:30N 37°52' E 023°29'1 0.1
2017-Jun-22 14:53N 37°53' E 023°29'1 3.0
2017-Jun-22 14:30N 37°53' E 023°30'6 5.7
2017-Jun-22 13:30N 37°55' E 023°37'  
2017-Jun-16 19:48N 37°56' E 023°39'0 0.1
2017-Jun-16 19:30N 37°56' E 023°39'3 5.0
2017-Jun-16 19:00N 37°54' E 023°40'3 6.3
2017-Jun-16 18:30N 37°51' E 023°42'3 6.3
2017-Jun-16 18:00N 37°48' E 023°45'  

Dump ship's entire track history